Time;durP1;ratioP1;P1;durP2;ratioP2;P2;SDS_P1;SDS_P2;PMS_P1;PMS_P2;Temp;Humidity;BMP_temperature;BMP_pressure;BME280_temperature;BME280_humidity;BME280_pressure;Samples;Min_cycle;Max_cycle;Signal;HPM_P1;HPM_P2
2022/01/09 00:00:34;;;;;;;4.57;1.77;;;3.40;99.90;;;;;;4997887;28;91024;-76
2022/01/09 00:03:00;;;;;;;5.13;2.20;;;3.50;99.90;;;;;;4998285;28;89421;-76
2022/01/09 00:05:25;;;;;;;4.45;2.30;;;3.50;99.90;;;;;;4997278;28;92731;-76
2022/01/09 00:07:51;;;;;;;4.53;2.10;;;3.50;99.90;;;;;;4997961;28;89870;-76
2022/01/09 00:10:18;;;;;;;3.35;1.80;;;3.50;99.90;;;;;;4998531;28;89331;-76
2022/01/09 00:12:44;;;;;;;2.25;1.70;;;3.50;99.90;;;;;;4996955;28;91660;-76
2022/01/09 00:15:10;;;;;;;4.15;1.77;;;3.50;99.90;;;;;;4997159;28;92654;-76
2022/01/09 00:17:36;;;;;;;2.25;1.45;;;3.50;99.90;;;;;;4998671;28;90193;-76
2022/01/09 00:20:04;;;;;;;2.20;1.45;;;3.60;99.90;;;;;;4998879;28;89264;-76
2022/01/09 00:22:39;;;;;;;4.70;1.80;;;3.60;99.90;;;;;;4998331;28;89171;-76
2022/01/09 00:25:05;;;;;;;3.42;1.40;;;3.60;99.90;;;;;;4998387;28;90384;-76
2022/01/09 00:27:31;;;;;;;3.55;2.05;;;3.60;99.90;;;;;;4998591;28;89652;-77
2022/01/09 00:29:56;;;;;;;2.70;1.60;;;3.60;99.90;;;;;;4998500;28;90182;-76
2022/01/09 05:00:53;;;;;;;0.20;0.20;;;4.90;99.90;;;;;;5805808;22;91105;-79
2022/01/09 05:03:19;;;;;;;0.47;0.40;;;4.90;99.90;;;;;;5003601;28;91203;-79
2022/01/09 05:05:45;;;;;;;1.55;0.20;;;4.80;99.90;;;;;;5007496;28;89377;-78
2022/01/09 05:08:11;;;;;;;0.40;0.32;;;4.80;99.90;;;;;;5008469;28;88871;-79
2022/01/09 05:10:36;;;;;;;0.90;0.40;;;4.80;99.90;;;;;;5005849;28;89290;-79
2022/01/09 05:13:02;;;;;;;1.25;0.28;;;4.80;99.90;;;;;;5004501;28;92143;-78
2022/01/09 05:15:27;;;;;;;0.30;0.30;;;4.80;99.90;;;;;;5006430;28;91220;-77
2022/01/09 05:17:58;;;;;;;3.25;0.60;;;4.70;99.90;;;;;;4999832;28;92449;-77
2022/01/09 05:20:24;;;;;;;2.17;0.50;;;4.70;99.90;;;;;;4999410;28;89190;-77
2022/01/09 05:22:50;;;;;;;0.68;0.20;;;4.70;99.90;;;;;;5000337;28;89715;-76
2022/01/09 05:25:15;;;;;;;1.60;0.30;;;4.60;99.90;;;;;;4998882;28;92010;-76
2022/01/09 05:27:41;;;;;;;0.40;0.40;;;4.60;99.90;;;;;;4998911;28;91531;-76
2022/01/09 05:30:07;;;;;;;0.30;0.30;;;4.50;99.90;;;;;;5000551;28;89326;-76
2022/01/09 05:32:33;;;;;;;0.40;0.30;;;4.50;99.90;;;;;;4998328;28;92859;-76
2022/01/09 05:34:58;;;;;;;1.73;0.30;;;4.40;99.90;;;;;;5000069;28;89295;-76
2022/01/09 05:37:24;;;;;;;0.65;0.20;;;4.30;99.90;;;;;;4999964;28;90150;-77
2022/01/09 05:39:49;;;;;;;0.30;0.30;;;4.20;99.90;;;;;;5004089;28;90185;-76
2022/01/09 05:42:15;;;;;;;0.35;0.20;;;4.20;99.90;;;;;;5000713;28;89695;-80
2022/01/09 05:44:41;;;;;;;0.80;0.38;;;4.10;99.90;;;;;;5005740;28;92836;-79
2022/01/09 05:47:07;;;;;;;1.30;0.30;;;4.00;99.90;;;;;;5006300;28;92663;-79
2022/01/09 05:49:32;;;;;;;2.00;0.40;;;4.00;99.90;;;;;;5006868;28;89256;-78
2022/01/09 05:51:58;;;;;;;1.00;0.50;;;4.00;99.90;;;;;;5003545;28;91923;-75
2022/01/09 05:54:24;;;;;;;0.70;0.40;;;3.90;99.90;;;;;;5002586;28;89201;-79
2022/01/09 05:56:51;;;;;;;1.50;0.50;;;3.90;99.90;;;;;;5007261;28;92657;-79
2022/01/09 05:59:18;;;;;;;0.55;0.50;;;4.00;99.90;;;;;;5008219;28;89298;-79
2022/01/09 06:01:43;;;;;;;0.70;0.40;;;4.00;99.90;;;;;;5013358;28;92496;-77
2022/01/09 06:04:09;;;;;;;0.60;0.30;;;3.90;99.90;;;;;;5002048;28;92661;-77
2022/01/09 06:06:34;;;;;;;0.20;0.20;;;4.00;99.90;;;;;;5001372;28;89474;-79
2022/01/09 06:09:00;;;;;;;0.60;0.40;;;3.90;99.90;;;;;;5004065;28;89364;-78
2022/01/09 06:11:26;;;;;;;1.40;0.52;;;3.90;99.90;;;;;;5004412;28;89395;-76
2022/01/09 06:13:51;;;;;;;2.35;0.43;;;3.80;99.90;;;;;;4998452;28;89991;-77
2022/01/09 06:16:17;;;;;;;0.40;0.40;;;3.70;99.90;;;;;;4997158;28;92376;-77
2022/01/09 06:18:42;;;;;;;0.85;0.60;;;3.70;99.90;;;;;;4997306;28;89202;-77
2022/01/09 06:21:08;;;;;;;0.68;0.50;;;3.70;99.90;;;;;;5002241;28;89035;-81
2022/01/09 06:23:34;;;;;;;3.17;0.90;;;3.70;99.90;;;;;;5001462;28;91699;-78
2022/01/09 06:25:59;;;;;;;2.33;0.80;;;3.70;99.90;;;;;;4999915;28;89221;-76
2022/01/09 06:28:25;;;;;;;1.73;0.77;;;3.70;99.90;;;;;;4996493;28;90450;-77
2022/01/09 06:30:51;;;;;;;1.58;0.90;;;3.70;99.90;;;;;;4996885;28;91442;-76
2022/01/09 06:33:16;;;;;;;1.85;1.10;;;3.70;99.90;;;;;;4998034;28;89693;-75
2022/01/09 06:35:45;;;;;;;4.22;1.27;;;3.70;99.90;;;;;;5001779;28;89556;-78
2022/01/09 06:38:11;;;;;;;3.40;1.20;;;3.80;99.90;;;;;;5002924;28;89302;-79
2022/01/09 06:40:40;;;;;;;5.82;1.55;;;3.80;99.90;;;;;;5004864;28;89643;-80
2022/01/09 06:43:06;;;;;;;6.20;1.45;;;3.80;99.90;;;;;;5003552;28;89392;-80
2022/01/09 06:45:31;;;;;;;5.28;1.48;;;3.90;99.90;;;;;;5004590;28;92381;-79
2022/01/09 06:47:58;;;;;;;3.60;1.38;;;3.80;99.90;;;;;;5006614;28;89334;-79
2022/01/09 06:50:25;;;;;;;4.05;1.75;;;3.90;99.90;;;;;;5006871;28;89288;-79
2022/01/09 06:52:50;;;;;;;4.72;1.70;;;3.90;99.90;;;;;;5004319;28;91395;-76
2022/01/09 06:55:17;;;;;;;8.35;1.65;;;3.90;99.90;;;;;;5001252;28;89470;-76
2022/01/09 06:57:43;;;;;;;5.00;1.60;;;3.90;99.90;;;;;;5004679;28;89061;-78
2022/01/09 07:00:11;;;;;;;4.03;1.67;;;4.00;99.90;;;;;;5006224;28;90570;-78
2022/01/09 07:02:37;;;;;;;4.68;1.50;;;3.90;99.90;;;;;;5003697;28;90472;-76
2022/01/09 07:05:04;;;;;;;2.85;1.73;;;3.90;99.90;;;;;;5000006;28;89719;-76
2022/01/09 07:07:30;;;;;;;6.15;2.38;;;4.00;99.90;;;;;;4999996;28;89316;-78
2022/01/09 07:09:55;;;;;;;6.93;1.80;;;4.00;99.90;;;;;;5002668;28;88881;-79
2022/01/09 07:12:21;;;;;;;6.63;1.27;;;4.00;99.90;;;;;;5002034;28;92642;-79
2022/01/09 07:14:47;;;;;;;4.70;1.95;;;4.00;99.90;;;;;;5003389;28;89611;-78
2022/01/09 07:17:12;;;;;;;6.47;1.58;;;4.00;99.90;;;;;;5003312;28;90168;-78
2022/01/09 07:19:38;;;;;;;6.88;1.55;;;4.00;99.90;;;;;;5003489;28;89479;-79
2022/01/09 07:22:05;;;;;;;4.57;1.50;;;3.90;99.90;;;;;;5003132;28;89273;-79
2022/01/09 07:24:31;;;;;;;3.00;1.35;;;3.90;99.90;;;;;;5002391;28;89251;-77
2022/01/09 07:26:56;;;;;;;4.60;1.70;;;3.90;99.90;;;;;;5000163;28;89207;-77
2022/01/09 07:29:22;;;;;;;4.20;1.65;;;3.90;99.90;;;;;;4999851;28;89715;-78
2022/01/09 07:31:47;;;;;;;7.60;2.03;;;3.90;99.90;;;;;;4999382;28;89910;-78
2022/01/09 07:34:13;;;;;;;4.70;2.00;;;3.90;99.90;;;;;;4999978;28;90214;-76
2022/01/09 07:36:39;;;;;;;4.57;1.70;;;4.00;99.90;;;;;;4999979;28;89257;-78
2022/01/09 07:39:04;;;;;;;5.07;2.05;;;4.00;99.90;;;;;;4999431;28;92591;-79
2022/01/09 07:41:30;;;;;;;6.25;2.17;;;4.00;99.90;;;;;;5002042;28;90327;-78
2022/01/09 07:43:58;;;;;;;6.10;2.20;;;3.90;99.90;;;;;;5003014;28;89921;-79
2022/01/09 07:46:24;;;;;;;4.85;2.08;;;3.90;99.90;;;;;;5002598;28;89353;-78
2022/01/09 07:48:50;;;;;;;7.25;2.20;;;3.90;99.90;;;;;;5001480;28;92619;-79
2022/01/09 07:51:24;;;;;;;6.97;2.13;;;3.90;99.90;;;;;;5001863;28;89947;-78
2022/01/09 07:53:50;;;;;;;10.45;2.35;;;3.90;99.90;;;;;;5002072;28;89647;-79
2022/01/09 07:56:15;;;;;;;11.40;2.70;;;3.90;99.90;;;;;;5001713;28;89250;-79
2022/01/09 07:58:41;;;;;;;9.98;3.75;;;3.90;99.90;;;;;;5003931;28;89156;-78
2022/01/09 08:01:07;;;;;;;11.40;2.80;;;3.90;99.90;;;;;;5000654;28;92108;-79
2022/01/09 08:03:34;;;;;;;7.85;2.38;;;3.90;99.90;;;;;;5002477;28;89511;-78
2022/01/09 08:05:59;;;;;;;12.02;2.45;;;4.00;99.90;;;;;;5002187;28;90345;-78
2022/01/09 08:08:25;;;;;;;11.82;3.22;;;3.90;99.90;;;;;;5002458;28;91503;-78
2022/01/09 08:10:52;;;;;;;9.95;3.45;;;3.90;99.90;;;;;;5002688;28;90216;-79
2022/01/09 08:13:18;;;;;;;16.55;2.83;;;4.00;99.90;;;;;;5001574;28;89105;-80
2022/01/09 08:15:43;;;;;;;16.38;3.05;;;4.00;99.90;;;;;;5001770;28;89297;-79
2022/01/09 08:18:12;;;;;;;10.40;3.28;;;4.00;99.90;;;;;;4999676;28;93014;-80
2022/01/09 08:20:37;;;;;;;12.35;3.10;;;3.90;99.90;;;;;;5001229;28;89338;-79
2022/01/09 08:23:03;;;;;;;12.52;2.83;;;4.00;99.90;;;;;;5001644;28;88947;-78
2022/01/09 08:25:29;;;;;;;13.25;2.58;;;3.90;99.90;;;;;;4999912;28;89307;-79
2022/01/09 08:27:55;;;;;;;13.38;2.92;;;3.90;99.90;;;;;;4998079;28;91497;-76
2022/01/09 08:30:21;;;;;;;12.75;2.80;;;3.90;99.90;;;;;;4997869;28;90321;-76
2022/01/09 08:32:48;;;;;;;10.20;2.65;;;3.90;99.90;;;;;;4998200;28;89671;-77
2022/01/09 08:35:16;;;;;;;9.73;2.63;;;3.90;99.90;;;;;;4998900;28;89384;-77
2022/01/09 08:37:42;;;;;;;11.15;2.78;;;4.00;99.90;;;;;;4999889;28;90019;-79
2022/01/09 08:40:10;;;;;;;13.45;2.83;;;3.90;99.90;;;;;;4999012;28;89564;-76
2022/01/09 08:42:39;;;;;;;11.20;2.58;;;3.90;99.90;;;;;;4997539;28;89454;-80
2022/01/09 08:45:05;;;;;;;9.68;2.60;;;3.90;99.90;;;;;;5001799;28;89488;-77
2022/01/09 08:47:30;;;;;;;10.40;2.47;;;3.90;99.90;;;;;;5003956;28;88888;-78
2022/01/09 08:49:56;;;;;;;11.57;2.50;;;3.90;99.90;;;;;;5004300;28;89278;-79
2022/01/09 08:52:22;;;;;;;16.63;2.20;;;4.00;99.90;;;;;;5002269;28;91279;-79
2022/01/09 08:54:48;;;;;;;13.88;2.85;;;4.00;99.90;;;;;;5000614;28;90112;-77
2022/01/09 08:57:14;;;;;;;11.02;2.30;;;4.00;99.90;;;;;;4999518;28;89452;-75
2022/01/09 08:59:39;;;;;;;9.25;2.20;;;4.00;99.90;;;;;;4998309;28;91439;-76
2022/01/09 09:02:05;;;;;;;13.02;2.35;;;4.00;99.90;;;;;;4997565;28;89967;-77
2022/01/09 09:04:31;;;;;;;11.90;2.35;;;4.00;99.90;;;;;;4998271;28;89607;-77
2022/01/09 09:06:56;;;;;;;12.75;2.78;;;4.00;99.90;;;;;;4995422;28;92502;-77
2022/01/09 09:09:22;;;;;;;7.32;2.05;;;4.10;99.90;;;;;;4997895;28;89319;-77
2022/01/09 09:11:48;;;;;;;18.42;2.95;;;4.10;99.90;;;;;;4996747;28;92752;-74
2022/01/09 09:14:14;;;;;;;13.25;2.13;;;4.20;99.90;;;;;;4998071;28;89187;-75
2022/01/09 09:16:40;;;;;;;6.43;2.00;;;4.30;99.90;;;;;;5002512;28;91881;-75
2022/01/09 09:19:05;;;;;;;5.88;1.73;;;4.40;99.90;;;;;;5008146;28;90213;-74
2022/01/09 09:21:31;;;;;;;6.90;1.83;;;4.40;99.90;;;;;;4999491;28;90715;-75
2022/01/09 09:23:56;;;;;;;10.98;2.20;;;4.40;99.90;;;;;;4997818;28;89165;-76
2022/01/09 09:26:22;;;;;;;7.22;2.08;;;4.40;99.90;;;;;;4997989;28;89936;-76
2022/01/09 09:28:48;;;;;;;11.13;2.17;;;4.50;99.90;;;;;;4996473;28;93336;-77
2022/01/09 09:31:14;;;;;;;10.13;2.47;;;4.50;99.90;;;;;;4995868;28;92675;-76
2022/01/09 09:33:39;;;;;;;14.13;2.22;;;4.60;99.90;;;;;;4997950;28;89218;-77
2022/01/09 09:36:05;;;;;;;9.30;1.90;;;4.60;99.90;;;;;;4997993;28;89681;-76
2022/01/09 09:38:31;;;;;;;11.63;2.75;;;4.80;99.90;;;;;;4997671;28;89880;-77
2022/01/09 09:40:57;;;;;;;13.23;2.00;;;4.70;99.90;;;;;;4997719;28;89869;-77
2022/01/09 09:43:23;;;;;;;7.88;2.20;;;4.80;99.90;;;;;;4997007;28;90202;-77
2022/01/09 09:45:49;;;;;;;13.77;2.60;;;4.90;99.90;;;;;;4997256;28;89212;-77
2022/01/09 09:48:15;;;;;;;13.60;2.00;;;4.90;99.90;;;;;;4997331;28;90441;-78
2022/01/09 09:50:40;;;;;;;11.32;2.00;;;5.00;99.90;;;;;;4996857;28;89734;-77
2022/01/09 09:53:06;;;;;;;11.40;2.80;;;5.00;99.90;;;;;;4997476;28;89219;-76
2022/01/09 09:55:32;;;;;;;10.02;2.80;;;5.00;99.90;;;;;;4997610;28;89477;-77
2022/01/09 09:58:00;;;;;;;11.88;2.25;;;5.20;99.90;;;;;;4997371;28;89260;-77
2022/01/09 10:00:26;;;;;;;8.80;1.73;;;5.20;99.90;;;;;;4997961;28;89777;-77
2022/01/09 10:02:54;;;;;;;9.25;1.58;;;5.20;99.90;;;;;;4997927;28;89217;-78
2022/01/09 10:05:22;;;;;;;9.00;2.25;;;5.30;99.90;;;;;;4999128;28;92782;-77
2022/01/09 10:07:48;;;;;;;8.27;1.92;;;5.40;99.90;;;;;;4996875;28;90420;-77
2022/01/09 10:10:16;;;;;;;10.32;1.98;;;5.50;99.90;;;;;;4995578;28;92659;-76
2022/01/09 10:12:44;;;;;;;11.88;2.05;;;5.60;99.90;;;;;;4998809;28;89229;-77
2022/01/09 10:15:16;;;;;;;9.20;1.98;;;5.90;99.90;;;;;;4997337;28;89345;-76
2022/01/09 10:17:47;;;;;;;9.48;2.65;;;6.00;99.90;;;;;;4998188;28;89308;-76
2022/01/09 10:20:21;;;;;;;6.65;2.10;;;5.90;99.90;;;;;;4998918;28;92724;-76
2022/01/09 10:22:50;;;;;;;7.93;2.25;;;6.00;99.90;;;;;;5000479;28;89210;-76
2022/01/09 10:25:24;;;;;;;10.38;1.95;;;5.90;99.90;;;;;;5000649;28;88839;-76
2022/01/09 10:27:54;;;;;;;7.72;1.92;;;5.90;99.90;;;;;;5002507;28;90174;-78
2022/01/09 10:30:23;;;;;;;14.82;2.80;;;6.00;99.90;;;;;;5001918;28;89129;-78
2022/01/09 10:32:54;;;;;;;12.07;2.00;;;5.90;99.90;;;;;;4999727;28;90148;-77
2022/01/09 10:35:20;;;;;;;7.95;1.75;;;5.80;99.90;;;;;;5000847;28;89675;-76
2022/01/09 10:37:48;;;;;;;7.85;1.83;;;5.80;99.90;;;;;;5000283;28;92098;-76
2022/01/09 10:40:19;;;;;;;10.23;1.92;;;5.80;99.90;;;;;;5000216;28;89630;-76
2022/01/09 10:42:59;;;;;;;9.77;2.10;;;5.80;99.90;;;;;;4999112;28;89314;-76
2022/01/09 10:45:25;;;;;;;11.77;1.95;;;5.80;99.90;;;;;;5000572;28;89312;-77
2022/01/09 10:47:55;;;;;;;9.75;1.90;;;5.70;99.90;;;;;;5000600;28;90081;-77
2022/01/09 10:50:30;;;;;;;11.98;2.28;;;5.70;99.90;;;;;;4999078;28;93183;-77
2022/01/09 10:53:32;;;;;;;9.07;1.90;;;5.60;99.90;;;;;;4998974;28;89277;-77
2022/01/09 10:56:11;;;;;;;12.35;2.10;;;5.50;99.90;;;;;;5000679;28;90179;-77
2022/01/09 10:58:43;;;;;;;6.32;1.80;;;5.50;99.90;;;;;;4998845;28;93696;-77
2022/01/09 11:01:31;;;;;;;7.28;1.52;;;5.40;99.90;;;;;;4999480;28;89386;-77
2022/01/09 11:04:06;;;;;;;7.53;1.90;;;5.30;99.90;;;;;;4999058;28;89260;-80
2022/01/09 11:06:34;;;;;;;9.43;2.08;;;5.20;99.90;;;;;;5000601;28;89345;-77
2022/01/09 11:09:02;;;;;;;5.47;1.75;;;5.20;99.90;;;;;;4999391;28;92046;-77
2022/01/09 11:11:47;;;;;;;9.30;2.00;;;5.20;99.90;;;;;;5000463;28;90056;-76
2022/01/09 11:14:17;;;;;;;10.82;1.92;;;5.30;99.90;;;;;;5000684;28;89242;-78
2022/01/09 11:16:54;;;;;;;10.40;1.80;;;5.30;99.90;;;;;;5024497;22;90237;-76
2022/01/09 11:19:24;;;;;;;9.02;1.95;;;5.40;99.90;;;;;;4999633;28;89238;-76
2022/01/09 11:21:54;;;;;;;9.55;1.70;;;5.40;99.90;;;;;;4998029;28;92851;-76
2022/01/09 11:24:38;;;;;;;10.02;2.00;;;5.40;99.90;;;;;;4999053;28;90267;-78
2022/01/09 11:27:13;;;;;;;6.75;1.73;;;5.40;99.90;;;;;;4999372;28;89238;-79
2022/01/09 11:30:07;;;;;;;7.05;1.90;;;5.40;99.90;;;;;;4998191;28;90507;-78
2022/01/09 11:32:55;;;;;;;6.97;1.95;;;5.50;99.90;;;;;;4999257;28;89774;-76
2022/01/09 11:36:04;;;;;;;7.68;2.08;;;5.60;99.90;;;;;;4999744;28;89246;-76
2022/01/09 11:38:46;;;;;;;5.72;1.90;;;5.70;99.90;;;;;;4999305;28;90224;-76
2022/01/09 11:41:26;;;;;;;10.43;1.88;;;5.80;99.90;;;;;;4997895;28;92499;-76
2022/01/09 11:43:58;;;;;;;5.43;2.17;;;5.90;99.90;;;;;;4997559;28;92643;-77
2022/01/09 11:46:26;;;;;;;9.05;2.05;;;6.10;99.90;;;;;;4997734;28;89261;-76
2022/01/09 11:48:51;;;;;;;6.32;1.60;;;6.10;99.90;;;;;;4999298;28;89397;-77
2022/01/09 11:51:25;;;;;;;7.55;1.67;;;6.10;99.90;;;;;;4998583;28;91102;-77
2022/01/09 11:53:59;;;;;;;9.48;1.85;;;6.10;99.90;;;;;;4997309;28;92525;-76
2022/01/09 11:57:03;;;;;;;7.28;1.67;;;6.10;99.90;;;;;;4999116;28;89373;-77
2022/01/09 11:59:34;;;;;;;8.00;1.95;;;6.20;99.90;;;;;;4997696;28;92014;-76
2022/01/09 12:02:12;;;;;;;10.43;1.88;;;6.20;99.90;;;;;;4997505;28;92516;-76
2022/01/09 12:04:41;;;;;;;9.50;2.30;;;6.10;99.90;;;;;;4998962;28;90115;-77
2022/01/09 12:07:12;;;;;;;7.20;1.98;;;6.20;99.90;;;;;;4998810;28;89259;-76
2022/01/09 12:09:47;;;;;;;5.88;1.80;;;6.20;99.90;;;;;;4999078;28;88896;-77
2022/01/09 12:12:23;;;;;;;8.40;1.85;;;6.20;99.90;;;;;;4998415;28;89213;-77
2022/01/09 12:15:01;;;;;;;4.50;1.60;;;6.10;99.90;;;;;;4998581;28;89176;-77
2022/01/09 12:17:44;;;;;;;7.50;1.75;;;5.90;99.90;;;;;;4998188;28;90335;-77
2022/01/09 12:20:13;;;;;;;6.60;1.80;;;5.80;99.90;;;;;;4997259;28;91540;-76
2022/01/09 12:25:21;;;;;;;6.03;1.20;;;5.80;99.90;;;;;;4997231;28;89741;-76
2022/01/09 12:27:54;;;;;;;5.38;1.48;;;5.80;99.90;;;;;;4997136;28;89405;-77
2022/01/09 12:30:36;;;;;;;9.63;3.63;;;5.80;99.90;;;;;;4997253;28;91585;-77
2022/01/09 12:33:34;;;;;;;8.25;2.50;;;5.80;99.90;;;;;;4998014;28;89385;-76
2022/01/09 12:36:16;;;;;;;7.60;3.33;;;5.70;99.90;;;;;;4996792;28;92848;-77
2022/01/09 12:38:48;;;;;;;10.00;4.45;;;5.40;99.90;;;;;;4998712;28;89384;-77
2022/01/09 12:41:20;;;;;;;20.35;7.85;;;5.20;99.90;;;;;;4996684;28;92916;-76
2022/01/09 12:43:47;;;;;;;14.70;6.15;;;5.20;99.90;;;;;;4995709;28;93235;-78
2022/01/09 12:46:17;;;;;;;9.10;2.53;;;5.20;99.90;;;;;;4998509;28;90536;-77
2022/01/09 12:49:08;;;;;;;12.95;7.40;;;5.20;99.90;;;;;;4998454;28;89237;-77
2022/01/09 12:51:35;;;;;;;9.77;4.05;;;5.20;99.90;;;;;;4996570;28;91932;-76
2022/01/09 12:54:04;;;;;;;5.90;1.60;;;5.10;99.90;;;;;;4997957;28;89874;-77
2022/01/09 12:56:32;;;;;;;5.53;1.48;;;5.10;99.90;;;;;;4996352;28;92339;-76
2022/01/09 12:59:06;;;;;;;6.30;1.70;;;5.10;99.90;;;;;;4998145;28;89161;-77
2022/01/09 13:01:36;;;;;;;7.00;1.88;;;5.00;99.90;;;;;;4998540;28;88876;-78
2022/01/09 13:04:19;;;;;;;5.03;1.70;;;5.00;99.90;;;;;;4997873;28;89188;-76
2022/01/09 13:06:50;;;;;;;5.88;1.55;;;5.10;99.90;;;;;;4997786;28;90104;-76
2022/01/09 13:09:24;;;;;;;6.57;2.17;;;5.00;99.90;;;;;;4996541;28;90280;-77
2022/01/09 13:12:01;;;;;;;6.78;1.45;;;5.00;99.90;;;;;;4997576;28;89245;-76
2022/01/09 13:14:26;;;;;;;4.38;1.27;;;5.00;99.90;;;;;;4996258;28;92558;-76
2022/01/09 13:16:52;;;;;;;6.97;1.35;;;4.80;99.90;;;;;;4997207;28;89710;-76
2022/01/09 13:19:19;;;;;;;3.75;1.33;;;4.90;99.90;;;;;;4997990;28;89305;-76
2022/01/09 13:21:47;;;;;;;4.45;1.50;;;5.10;99.90;;;;;;4997520;28;89619;-76
2022/01/09 13:24:14;;;;;;;6.47;1.40;;;5.10;99.90;;;;;;4995668;28;92393;-76
2022/01/09 13:26:52;;;;;;;4.70;1.50;;;5.10;99.90;;;;;;4997861;28;89834;-76
2022/01/09 13:29:42;;;;;;;5.90;1.67;;;5.00;99.90;;;;;;4997895;28;89224;-77
2022/01/09 13:32:08;;;;;;;7.00;1.83;;;5.00;99.90;;;;;;4997589;28;89706;-76
2022/01/09 13:34:43;;;;;;;7.00;1.75;;;5.10;99.90;;;;;;4996871;28;90154;-76
2022/01/09 13:37:09;;;;;;;7.78;1.85;;;5.10;99.90;;;;;;4995578;28;93444;-76
2022/01/09 13:39:38;;;;;;;5.55;1.60;;;5.00;99.90;;;;;;4997793;28;89276;-76
2022/01/09 13:42:06;;;;;;;5.38;1.65;;;5.00;99.90;;;;;;4997253;28;90123;-76
2022/01/09 13:44:37;;;;;;;9.18;1.48;;;4.90;99.90;;;;;;4997266;28;90313;-76
2022/01/09 13:47:16;;;;;;;9.88;1.85;;;4.90;99.90;;;;;;4997157;28;89299;-76
2022/01/09 13:49:48;;;;;;;5.72;1.50;;;4.90;99.90;;;;;;4997643;28;89957;-76
2022/01/09 13:52:16;;;;;;;7.22;1.83;;;4.90;99.90;;;;;;4996328;28;92890;-76
2022/01/09 13:54:43;;;;;;;4.97;1.58;;;4.90;99.90;;;;;;5000927;28;90151;-76
2022/01/09 13:57:16;;;;;;;4.45;1.40;;;5.00;99.90;;;;;;5000591;28;89136;-77
2022/01/09 13:59:48;;;;;;;2.85;1.25;;;5.00;99.90;;;;;;4998856;28;90429;-76
2022/01/09 14:02:19;;;;;;;3.22;1.30;;;4.80;99.90;;;;;;5000216;28;90221;-76
2022/01/09 14:04:46;;;;;;;2.33;0.90;;;4.70;99.90;;;;;;5000571;28;91274;-76
2022/01/09 14:07:17;;;;;;;2.88;1.25;;;4.60;99.90;;;;;;4999196;28;92460;-76
2022/01/09 14:09:52;;;;;;;3.08;1.27;;;4.50;99.90;;;;;;4999609;28;89561;-76
2022/01/09 14:12:21;;;;;;;3.78;1.20;;;4.40;99.90;;;;;;4999008;28;92674;-76
2022/01/09 14:14:47;;;;;;;2.97;1.10;;;4.40;99.90;;;;;;5000505;28;90047;-76
2022/01/09 14:17:24;;;;;;;5.38;1.30;;;4.40;99.90;;;;;;5000529;28;88965;-76
2022/01/09 14:19:50;;;;;;;3.00;1.10;;;4.50;99.90;;;;;;4999283;28;89457;-76
2022/01/09 14:22:15;;;;;;;5.25;1.50;;;4.60;99.90;;;;;;5000037;28;89653;-76
2022/01/09 14:25:06;;;;;;;5.13;1.45;;;4.60;99.90;;;;;;4999398;28;92202;-76
2022/01/09 14:27:35;;;;;;;5.68;1.48;;;4.60;99.90;;;;;;5000419;28;90509;-76
2022/01/09 14:30:03;;;;;;;7.25;1.30;;;4.70;99.90;;;;;;5001575;28;89353;-77
2022/01/09 14:32:28;;;;;;;2.80;1.10;;;4.80;99.90;;;;;;5000390;28;91545;-77
2022/01/09 14:34:55;;;;;;;4.93;1.20;;;4.90;99.90;;;;;;5000660;28;89256;-77
2022/01/09 14:37:22;;;;;;;4.63;1.40;;;5.10;99.90;;;;;;4999914;28;90091;-77
2022/01/09 14:39:48;;;;;;;6.97;1.80;;;5.10;99.90;;;;;;5000259;28;89312;-77
2022/01/09 14:42:14;;;;;;;6.88;1.75;;;5.20;99.90;;;;;;5000390;28;90118;-78
2022/01/09 14:44:40;;;;;;;5.75;1.67;;;5.30;99.90;;;;;;5000251;28;90322;-78
2022/01/09 14:47:06;;;;;;;4.85;1.70;;;5.30;99.90;;;;;;5000472;28;89342;-76
2022/01/09 14:49:32;;;;;;;3.15;1.02;;;5.30;99.90;;;;;;5000122;28;90264;-78
2022/01/09 14:51:58;;;;;;;2.83;1.30;;;5.30;99.90;;;;;;4993919;28;89427;-76
2022/01/09 14:54:23;;;;;;;2.70;1.20;;;5.20;99.90;;;;;;4989349;28;90346;-76
2022/01/09 14:56:49;;;;;;;4.07;1.63;;;5.00;99.90;;;;;;4989968;28;89348;-77
2022/01/09 14:59:15;;;;;;;6.40;1.25;;;4.90;99.90;;;;;;4997246;28;89209;-76
2022/01/09 15:01:41;;;;;;;3.63;1.25;;;4.80;99.90;;;;;;4989551;28;92581;-76
2022/01/09 15:04:08;;;;;;;4.13;1.27;;;4.70;99.90;;;;;;4991076;28;92840;-77
2022/01/09 15:06:34;;;;;;;6.18;1.60;;;4.60;99.90;;;;;;4990641;28;92575;-78
2022/01/09 15:08:59;;;;;;;4.72;1.40;;;4.50;99.90;;;;;;4997928;28;89534;-78
2022/01/09 15:11:25;;;;;;;5.72;1.60;;;4.40;99.90;;;;;;5005357;28;91416;-80
2022/01/09 15:13:51;;;;;;;5.97;1.77;;;4.40;99.90;;;;;;5002196;28;93398;-76
2022/01/09 15:16:16;;;;;;;3.45;1.50;;;4.30;99.90;;;;;;4999719;28;90490;-81
2022/01/09 15:18:42;;;;;;;3.47;1.38;;;4.30;99.90;;;;;;4998770;28;89342;-78
2022/01/09 15:21:10;;;;;;;6.25;1.60;;;4.30;99.90;;;;;;5000099;28;89533;-77
2022/01/09 15:23:37;;;;;;;3.70;1.48;;;4.30;99.90;;;;;;4998313;28;89350;-80
2022/01/09 15:26:02;;;;;;;4.63;1.40;;;4.30;99.90;;;;;;4999585;28;91703;-77
2022/01/09 15:28:28;;;;;;;3.42;1.02;;;4.30;99.90;;;;;;5001086;28;89728;-80
2022/01/09 15:30:53;;;;;;;6.18;1.42;;;4.30;99.90;;;;;;5002536;28;89034;-81
2022/01/09 15:33:19;;;;;;;4.47;1.17;;;4.20;99.90;;;;;;4989220;28;89937;-77
2022/01/09 15:35:46;;;;;;;3.22;1.20;;;4.20;99.90;;;;;;4980058;28;89841;-80
2022/01/09 15:38:12;;;;;;;3.50;1.08;;;4.20;99.90;;;;;;4979870;28;90268;-79
2022/01/09 15:40:37;;;;;;;2.80;1.02;;;4.10;99.90;;;;;;4981137;28;91567;-78
2022/01/09 15:43:04;;;;;;;2.92;1.35;;;4.10;99.90;;;;;;4977888;28;91630;-83
2022/01/09 15:45:30;;;;;;;2.33;0.90;;;4.10;99.90;;;;;;4978702;28;89175;-79
2022/01/09 15:47:55;;;;;;;3.55;1.15;;;4.00;99.90;;;;;;4979245;28;89370;-79
2022/01/09 15:50:21;;;;;;;3.00;0.90;;;4.00;99.90;;;;;;4984728;28;93036;-80
2022/01/09 15:52:47;;;;;;;5.25;1.30;;;3.90;99.90;;;;;;4998431;28;92767;-81
2022/01/09 15:55:13;;;;;;;4.03;1.27;;;3.80;99.90;;;;;;4996856;28;92910;-77
2022/01/09 15:57:42;;;;;;;2.70;1.10;;;3.70;99.90;;;;;;4980975;28;89255;-83
2022/01/09 16:00:12;;;;;;;2.67;1.00;;;3.50;99.90;;;;;;4978336;28;91586;-76
2022/01/09 16:02:39;;;;;;;2.15;0.95;;;3.40;99.90;;;;;;4985184;28;90287;-78
2022/01/09 16:05:05;;;;;;;4.72;1.05;;;3.30;99.90;;;;;;4999365;28;94693;-79
2022/01/09 16:07:31;;;;;;;3.05;1.05;;;3.00;99.90;;;;;;4999744;28;89388;-81
2022/01/09 16:09:57;;;;;;;5.13;1.67;;;3.00;99.90;;;;;;4999245;28;90207;-76
2022/01/09 16:12:22;;;;;;;3.75;1.80;;;2.80;99.90;;;;;;4999176;28;89370;-76
2022/01/09 16:14:48;;;;;;;3.78;1.92;;;2.70;99.90;;;;;;4997469;28;91750;-75
2022/01/09 16:17:15;;;;;;;4.30;2.50;;;2.60;99.90;;;;;;4998229;28;89209;-77
2022/01/09 16:19:40;;;;;;;14.27;9.07;;;2.50;99.90;;;;;;4998201;28;89576;-79
2022/01/09 16:22:06;;;;;;;4.95;3.45;;;2.50;99.90;;;;;;5000858;28;90413;-80
2022/01/09 16:24:34;;;;;;;10.20;5.22;;;2.40;99.90;;;;;;5000874;28;92903;-79
2022/01/09 16:27:00;;;;;;;8.43;5.18;;;2.40;99.90;;;;;;5000510;28;90356;-78
2022/01/09 16:29:26;;;;;;;3.80;2.20;;;2.30;99.90;;;;;;4983918;28;92928;-78
2022/01/09 16:31:52;;;;;;;5.68;2.92;;;2.30;99.90;;;;;;4982596;28;92914;-80
2022/01/09 16:34:18;;;;;;;48.20;27.38;;;2.20;99.90;;;;;;4982667;28;92409;-79
2022/01/09 16:36:44;;;;;;;6.53;3.95;;;2.10;99.90;;;;;;4979030;28;89227;-78
2022/01/09 16:39:13;;;;;;;8.77;3.65;;;2.10;99.90;;;;;;4980122;28;89953;-76
2022/01/09 16:41:40;;;;;;;6.78;3.08;;;1.90;99.90;;;;;;4984886;28;90068;-78
2022/01/09 16:44:08;;;;;;;13.98;9.73;;;1.90;99.90;;;;;;4999568;28;88963;-77
2022/01/09 16:46:37;;;;;;;7.50;2.53;;;1.80;99.90;;;;;;5000380;28;89154;-77
2022/01/09 16:49:04;;;;;;;4.50;2.55;;;1.90;99.90;;;;;;4999712;28;89239;-78
2022/01/09 16:51:29;;;;;;;5.53;2.50;;;1.90;99.90;;;;;;4998476;28;92869;-78
2022/01/09 16:53:55;;;;;;;4.53;1.90;;;1.90;99.90;;;;;;4998236;28;93845;-79
2022/01/09 16:56:21;;;;;;;5.20;1.77;;;1.90;99.90;;;;;;4998741;28;89496;-78
2022/01/09 16:58:48;;;;;;;3.72;1.40;;;2.10;99.90;;;;;;5000506;28;91684;-78
2022/01/09 17:01:15;;;;;;;5.65;1.65;;;2.30;99.90;;;;;;5002192;28;91294;-78
2022/01/09 17:03:40;;;;;;;6.05;2.00;;;2.50;99.90;;;;;;5002607;28;91658;-78
2022/01/09 17:06:08;;;;;;;5.47;2.05;;;2.60;99.90;;;;;;5001913;28;89372;-78
2022/01/09 17:08:39;;;;;;;5.65;1.80;;;2.60;99.90;;;;;;5003694;28;89842;-78
2022/01/09 17:11:16;;;;;;;7.43;2.10;;;2.70;99.90;;;;;;4999674;28;92398;-77
2022/01/09 17:13:42;;;;;;;4.90;1.77;;;2.70;99.90;;;;;;5000989;28;89675;-80
2022/01/09 17:16:08;;;;;;;7.07;2.13;;;2.80;99.90;;;;;;5033334;22;92374;-81
2022/01/09 17:18:34;;;;;;;6.03;2.28;;;2.80;99.90;;;;;;5040684;28;93286;-81
2022/01/09 17:21:00;;;;;;;6.93;2.13;;;2.90;99.90;;;;;;5041249;28;91935;-82
2022/01/09 17:23:26;;;;;;;4.78;2.15;;;2.90;99.90;;;;;;5041937;28;89240;-82
2022/01/09 17:25:55;;;;;;;4.88;2.03;;;2.90;99.90;;;;;;5038254;28;89168;-81
2022/01/09 17:28:21;;;;;;;5.28;2.35;;;3.00;99.90;;;;;;5019289;28;91985;-81
2022/01/09 17:30:47;;;;;;;6.88;2.20;;;3.00;99.90;;;;;;5015888;28;92011;-82
2022/01/09 17:33:13;;;;;;;8.68;3.58;;;3.00;99.90;;;;;;5020418;28;92670;-78